createdAt,value
2016-05-29T00:00:03.370Z,87.9
2016-05-29T00:00:13.292Z,88
2016-05-29T00:00:23.307Z,88
2016-05-29T00:00:33.276Z,87.8
2016-05-29T00:00:43.292Z,87.9
2016-05-29T00:00:53.123Z,87.9
2016-05-29T00:01:03.185Z,87.9
2016-05-29T00:01:13.263Z,87.6
2016-05-29T00:01:23.263Z,87.4
2016-05-29T00:01:46.001Z,87.5
2016-05-29T00:01:53.719Z,87.4
2016-05-29T00:02:03.735Z,87.2
2016-05-29T00:02:13.579Z,87.5
2016-05-29T00:02:23.688Z,87.4
2016-05-29T00:02:33.704Z,87.4
2016-05-29T00:02:43.704Z,87.4
2016-05-29T00:02:53.690Z,87.7
2016-05-29T00:03:03.690Z,87.5
2016-05-29T00:03:13.534Z,87.2
2016-05-29T00:03:23.706Z,87.2
2016-05-29T00:03:33.581Z,87.6
2016-05-29T00:03:43.675Z,87.4
2016-05-29T00:03:53.381Z,87.4
2016-05-29T00:04:03.678Z,87.1
2016-05-29T00:04:13.678Z,87.5
2016-05-29T00:04:23.678Z,88
2016-05-29T00:04:33.678Z,88
2016-05-29T00:04:43.678Z,87.9
2016-05-29T00:04:53.665Z,88
2016-05-29T00:05:04.056Z,88
2016-05-29T00:05:13.681Z,88.5
2016-05-29T00:05:23.524Z,88.3
2016-05-29T00:05:33.806Z,88.1
2016-05-29T00:05:43.540Z,88.4
2016-05-29T00:05:54.309Z,88.5
2016-05-29T00:06:04.277Z,88.5
2016-05-29T00:06:13.855Z,88.4
2016-05-29T00:06:23.637Z,89
2016-05-29T00:06:33.652Z,88.7
2016-05-29T00:06:43.637Z,89
2016-05-29T00:06:53.654Z,89
2016-05-29T00:07:03.639Z,88.8
2016-05-29T00:07:13.686Z,88.8
2016-05-29T00:07:23.701Z,88.8
2016-05-29T00:07:33.357Z,88.8
2016-05-29T00:07:43.342Z,88.5
2016-05-29T00:07:53.642Z,88.9
2016-05-29T00:08:03.657Z,88.3
2016-05-29T00:08:13.485Z,88.1
2016-05-29T00:08:23.626Z,88.4
2016-05-29T00:08:33.626Z,88.3
2016-05-29T00:08:43.485Z,88.5
2016-05-29T00:08:53.629Z,87.9
2016-05-29T00:09:03.613Z,88.2
2016-05-29T00:09:13.613Z,88.1
2016-05-29T00:09:23.754Z,88.3
2016-05-29T00:09:33.613Z,88.3
2016-05-29T00:09:43.598Z,88.4
2016-05-29T00:09:53.600Z,88.5
2016-05-29T00:10:03.631Z,88.4
2016-05-29T00:10:13.475Z,88.5
2016-05-29T00:10:23.959Z,88.1
2016-05-29T00:10:33.584Z,88.2
2016-05-29T00:10:43.631Z,88.4
2016-05-29T00:10:53.587Z,88.3
2016-05-29T00:11:03.587Z,88.6
2016-05-29T00:11:13.587Z,88.3
2016-05-29T00:11:23.712Z,88.4
2016-05-29T00:11:33.431Z,88.2
2016-05-29T00:11:43.884Z,88.6
2016-05-29T00:11:53.574Z,88.3
2016-05-29T00:12:03.417Z,88
2016-05-29T00:12:13.574Z,88.1
2016-05-29T00:12:23.402Z,88.2
2016-05-29T00:12:33.574Z,88.3
2016-05-29T00:12:43.636Z,88.3
2016-05-29T00:12:53.640Z,88.2
2016-05-29T00:13:03.562Z,88.3
2016-05-29T00:13:13.562Z,87.8
2016-05-29T00:13:23.640Z,87.8
2016-05-29T00:13:33.562Z,87.9
2016-05-29T00:13:43.562Z,87.1
2016-05-29T00:13:53.580Z,87.1
2016-05-29T00:14:03.626Z,87.6
2016-05-29T00:14:13.392Z,87.9
2016-05-29T00:14:23.533Z,88.2
2016-05-29T00:14:33.423Z,88.3
2016-05-29T00:14:43.548Z,88.8
2016-05-29T00:14:53.550Z,88.5
2016-05-29T00:15:03.425Z,89.1
2016-05-29T00:15:13.394Z,89
2016-05-29T00:15:23.566Z,88.8
2016-05-29T00:15:33.535Z,88.9
2016-05-29T00:15:43.394Z,88.8
2016-05-29T00:15:53.366Z,88.3
2016-05-29T00:16:03.522Z,88.9
2016-05-29T00:16:13.225Z,88.9
2016-05-29T00:16:23.506Z,88.8
2016-05-29T00:16:33.522Z,88.9
2016-05-29T00:16:43.350Z,88.8
2016-05-29T00:16:53.525Z,88.3
2016-05-29T00:17:03.525Z,88.4
2016-05-29T00:17:13.369Z,88.5
2016-05-29T00:17:23.509Z,88.2
2016-05-29T00:17:33.338Z,88.7
2016-05-29T00:17:43.338Z,89.1
2016-05-29T00:17:53.481Z,89.1
2016-05-29T00:18:03.512Z,89.1
2016-05-29T00:18:13.481Z,89.1
2016-05-29T00:18:23.200Z,88.8
2016-05-29T00:18:33.325Z,88.4
2016-05-29T00:18:43.341Z,88.4
2016-05-29T00:18:53.469Z,88.5
2016-05-29T00:19:03.500Z,88.5
2016-05-29T00:19:13.500Z,88.3
2016-05-29T00:19:23.484Z,88.8
2016-05-29T00:19:33.484Z,89.1
2016-05-29T00:19:43.609Z,88.8
2016-05-29T00:19:53.486Z,89.2
2016-05-29T00:20:04.252Z,89.7
2016-05-29T00:20:13.174Z,89
2016-05-29T00:20:23.314Z,89.3
2016-05-29T00:20:34.330Z,89
2016-05-29T00:20:43.408Z,89
2016-05-29T00:20:53.880Z,89.7
2016-05-29T00:21:03.442Z,89.4
2016-05-29T00:21:13.833Z,89
2016-05-29T00:21:23.349Z,89
2016-05-29T00:21:33.270Z,88.8
2016-05-29T00:21:43.442Z,88.3
2016-05-29T00:21:53.477Z,88.4
2016-05-29T00:22:03.117Z,88.2
2016-05-29T00:22:13.445Z,88.6
2016-05-29T00:22:23.477Z,88.4
2016-05-29T00:22:33.414Z,88.4
2016-05-29T00:22:43.445Z,88.2
2016-05-29T00:22:53.447Z,88.2
2016-05-29T00:23:03.432Z,88.5
2016-05-29T00:23:13.416Z,88.4
2016-05-29T00:23:23.275Z,88.9
2016-05-29T00:23:33.400Z,89
2016-05-29T00:23:43.416Z,88.2
2016-05-29T00:23:53.419Z,88.5
2016-05-29T00:24:03.388Z,88.2
2016-05-29T00:24:13.232Z,88.4
2016-05-29T00:24:23.482Z,88.4
2016-05-29T00:24:33.419Z,88.6
2016-05-29T00:24:43.403Z,88.1
2016-05-29T00:24:53.094Z,88.3
2016-05-29T00:25:03.516Z,88.2
2016-05-29T00:25:13.391Z,88.3
2016-05-29T00:25:23.406Z,88.2
2016-05-29T00:25:33.250Z,88.2
2016-05-29T00:25:43.469Z,88.4
2016-05-29T00:25:53.377Z,88.2
2016-05-29T00:26:03.377Z,88.2
2016-05-29T00:26:13.377Z,88.4
2016-05-29T00:26:23.377Z,88.3
2016-05-29T00:26:33.221Z,88.5
2016-05-29T00:26:43.252Z,88.6
2016-05-29T00:26:53.349Z,88.6
2016-05-29T00:27:03.380Z,88.4
2016-05-29T00:27:13.208Z,88.3
2016-05-29T00:27:23.208Z,88.2
2016-05-29T00:27:33.365Z,88.3
2016-05-29T00:27:43.380Z,88.5
2016-05-29T00:27:53.351Z,88.3
2016-05-29T00:28:03.226Z,88.1
2016-05-29T00:28:13.195Z,87.9
2016-05-29T00:28:23.413Z,87.5
2016-05-29T00:28:33.210Z,87.5
2016-05-29T00:28:43.351Z,87.4
2016-05-29T00:28:53.338Z,87.3
2016-05-29T00:29:03.338Z,87.5
2016-05-29T00:29:13.198Z,87.6
2016-05-29T00:29:23.323Z,86.9
2016-05-29T00:29:33.323Z,86.8
2016-05-29T00:29:43.213Z,87.1
2016-05-29T00:29:53.357Z,86.9
2016-05-29T00:30:03.169Z,86.9
2016-05-29T00:30:13.169Z,86.9
2016-05-29T00:30:23.201Z,87.9
2016-05-29T00:30:33.294Z,87.7
2016-05-29T00:30:43.310Z,87.7
2016-05-29T00:30:53.297Z,87.3
2016-05-29T00:31:03.360Z,87
2016-05-29T00:31:13.282Z,87
2016-05-29T00:31:23.297Z,87.1
2016-05-29T00:31:33.313Z,86.9
2016-05-29T00:31:43.297Z,87
2016-05-29T00:31:53.159Z,87.3
2016-05-29T00:32:03.128Z,86.6
2016-05-29T00:32:13.159Z,87.1
2016-05-29T00:32:23.315Z,87.4
2016-05-29T00:32:33.284Z,87.6
2016-05-29T00:32:43.315Z,87.5
2016-05-29T00:32:53.287Z,87.4
2016-05-29T00:33:03.302Z,87.6
2016-05-29T00:33:13.146Z,87.6
2016-05-29T00:33:23.131Z,87.8
2016-05-29T00:33:33.271Z,87.5
2016-05-29T00:33:43.256Z,87.5
2016-05-29T00:33:53.337Z,87.4
2016-05-29T00:34:03.259Z,87
2016-05-29T00:34:13.259Z,87.1
2016-05-29T00:34:23.305Z,87.4
2016-05-29T00:34:33.274Z,87.1
2016-05-29T00:34:43.259Z,87.7
2016-05-29T00:34:53.262Z,87.1
2016-05-29T00:35:03.074Z,87.7
2016-05-29T00:35:13.855Z,87.6
2016-05-29T00:35:23.543Z,87.1
2016-05-29T00:35:34.027Z,87.5
2016-05-29T00:35:44.574Z,87.3
2016-05-29T00:35:53.326Z,87.7
2016-05-29T00:36:04.373Z,87
2016-05-29T00:36:13.857Z,86.9
2016-05-29T00:36:23.139Z,86.7
2016-05-29T00:36:33.248Z,86.5
2016-05-29T00:36:43.232Z,85.9
2016-05-29T00:36:53.235Z,86.2
2016-05-29T00:37:03.235Z,86
2016-05-29T00:37:13.282Z,86
2016-05-29T00:37:23.204Z,85.9
2016-05-29T00:37:33.204Z,85.8
2016-05-29T00:37:43.251Z,85.4
2016-05-29T00:37:53.065Z,85.5
2016-05-29T00:38:03.190Z,85.4
2016-05-29T00:38:13.190Z,85.5
2016-05-29T00:38:22.909Z,85.6
2016-05-29T00:38:33.222Z,85.6
2016-05-29T00:38:43.097Z,85.6
2016-05-29T00:38:53.193Z,85.3
2016-05-29T00:39:03.053Z,85.9
2016-05-29T00:39:13.037Z,86.2
2016-05-29T00:39:23.209Z,86.3
2016-05-29T00:39:33.193Z,86.9
2016-05-29T00:39:43.084Z,86.9
2016-05-29T00:39:53.181Z,86.9
2016-05-29T00:40:03.165Z,87
2016-05-29T00:40:13.165Z,87.1
2016-05-29T00:40:23.040Z,87.6
2016-05-29T00:40:33.228Z,87.5
2016-05-29T00:40:43.181Z,87.1
2016-05-29T00:40:52.871Z,87.4
2016-05-29T00:41:03.168Z,87.6
2016-05-29T00:41:13.153Z,87.5
2016-05-29T00:41:23.168Z,87.4
2016-05-29T00:41:33.168Z,88
2016-05-29T00:41:43.215Z,88.2
2016-05-29T00:41:52.983Z,88.4
2016-05-29T00:42:03.170Z,88.3
2016-05-29T00:42:13.139Z,87.8
2016-05-29T00:42:23.155Z,87.4
2016-05-29T00:42:32.983Z,87.3
2016-05-29T00:42:43.139Z,87
2016-05-29T00:42:53.126Z,86.9
2016-05-29T00:43:03.142Z,86.5
2016-05-29T00:43:13.158Z,87
2016-05-29T00:43:23.111Z,86.6
2016-05-29T00:43:33.126Z,86.7
2016-05-29T00:43:43.033Z,86
2016-05-29T00:43:53.223Z,86.2
2016-05-29T00:44:03.161Z,85.9
2016-05-29T00:44:13.114Z,86
2016-05-29T00:44:23.145Z,86.5
2016-05-29T00:44:33.176Z,86
2016-05-29T00:44:43.145Z,85.8
2016-05-29T00:44:53.100Z,85.9
2016-05-29T00:45:02.975Z,85.9
2016-05-29T00:45:13.131Z,85.8
2016-05-29T00:45:23.084Z,85.9
2016-05-29T00:45:33.100Z,85.7
2016-05-29T00:45:43.116Z,85.8
2016-05-29T00:45:53.103Z,85.7
2016-05-29T00:46:03.072Z,85.6
2016-05-29T00:46:13.072Z,85.7
2016-05-29T00:46:23.119Z,85.4
2016-05-29T00:46:33.150Z,85.9
2016-05-29T00:46:43.072Z,86
2016-05-29T00:46:53.075Z,85.9
2016-05-29T00:47:03.090Z,86.3
2016-05-29T00:47:13.090Z,86.5
2016-05-29T00:47:23.090Z,86.3
2016-05-29T00:47:33.059Z,86.7
2016-05-29T00:47:43.059Z,87
2016-05-29T00:47:52.905Z,87
2016-05-29T00:48:02.905Z,87
2016-05-29T00:48:13.061Z,87.2
2016-05-29T00:48:23.046Z,86.8
2016-05-29T00:48:32.889Z,86.9
2016-05-29T00:48:42.749Z,86.9
2016-05-29T00:48:53.064Z,86.6
2016-05-29T00:49:03.033Z,87
2016-05-29T00:49:12.892Z,86.8
2016-05-29T00:49:23.049Z,86.8
2016-05-29T00:49:33.033Z,86.7
2016-05-29T00:49:43.033Z,87
2016-05-29T00:49:53.270Z,86.8
2016-05-29T00:50:03.067Z,86.9
2016-05-29T00:50:13.145Z,86.9
2016-05-29T00:50:22.895Z,87
2016-05-29T00:50:33.005Z,87.6
2016-05-29T00:50:43.067Z,87.3
2016-05-29T00:50:52.897Z,87.2
2016-05-29T00:51:03.210Z,87.1
2016-05-29T00:51:12.804Z,87.2
2016-05-29T00:51:22.866Z,87.4
2016-05-29T00:51:33.022Z,87.5
2016-05-29T00:51:42.850Z,87.2
2016-05-29T00:51:53.042Z,87
2016-05-29T00:52:02.995Z,87
2016-05-29T00:52:12.839Z,87.6
2016-05-29T00:52:22.995Z,87.6
2016-05-29T00:52:33.011Z,87.3
2016-05-29T00:52:42.995Z,87.3
2016-05-29T00:52:52.981Z,87.5
2016-05-29T00:53:02.903Z,87.4
2016-05-29T00:53:12.825Z,87.7
2016-05-29T00:53:22.825Z,87.5
2016-05-29T00:53:32.841Z,87.4
2016-05-29T00:53:42.997Z,87.3
2016-05-29T00:53:52.813Z,87.6
2016-05-29T00:54:02.719Z,87.3
2016-05-29T00:54:13.000Z,87.4
2016-05-29T00:54:22.969Z,87.8
2016-05-29T00:54:32.984Z,87.1
2016-05-29T00:54:42.984Z,87.5
2016-05-29T00:54:52.986Z,87.5
2016-05-29T00:55:02.955Z,87.5
2016-05-29T00:55:13.002Z,87.8
2016-05-29T00:55:22.955Z,87
2016-05-29T00:55:32.971Z,86.9
2016-05-29T00:55:42.955Z,86.9
2016-05-29T00:55:52.958Z,87.5
2016-05-29T00:56:02.943Z,87.5
2016-05-29T00:56:12.786Z,87.4
2016-05-29T00:56:22.927Z,87.5
2016-05-29T00:56:32.943Z,87.5
2016-05-29T00:56:42.927Z,87.4
2016-05-29T00:56:52.648Z,87.3
2016-05-29T00:57:02.773Z,87.3
2016-05-29T00:57:12.835Z,87.4
2016-05-29T00:57:22.929Z,87.9
2016-05-29T00:57:32.366Z,87.8
2016-05-29T00:57:42.913Z,88.3
2016-05-29T00:57:52.933Z,88
2016-05-29T00:58:02.917Z,88.1
2016-05-29T00:58:12.761Z,88.1
2016-05-29T00:58:22.902Z,88.7
2016-05-29T00:58:32.792Z,88.6
2016-05-29T00:58:42.902Z,88.1
2016-05-29T00:58:52.904Z,88.1
2016-05-29T00:59:02.888Z,88.3
2016-05-29T00:59:12.935Z,88.2
2016-05-29T00:59:22.904Z,88.3
2016-05-29T00:59:33.060Z,88
2016-05-29T00:59:42.732Z,88.1
2016-05-29T00:59:52.906Z,88.2
2016-05-29T01:00:02.874Z,87.9
2016-05-29T01:00:12.749Z,87.5
2016-05-29T01:00:22.874Z,87.7
2016-05-29T01:00:32.874Z,87.6
2016-05-29T01:00:42.874Z,87.9
2016-05-29T01:00:52.910Z,87
2016-05-29T01:01:02.722Z,87.7
2016-05-29T01:01:12.800Z,86.9
2016-05-29T01:01:22.644Z,87
2016-05-29T01:01:32.894Z,87
2016-05-29T01:01:42.910Z,86.9
2016-05-29T01:01:52.834Z,87
2016-05-29T01:02:02.865Z,87.1
2016-05-29T01:02:12.880Z,86.9
2016-05-29T01:02:22.849Z,87
2016-05-29T01:02:32.865Z,86.8
2016-05-29T01:02:42.693Z,86.4
2016-05-29T01:02:52.696Z,86.6
2016-05-29T01:03:02.837Z,86.7
2016-05-29T01:03:12.868Z,86.3
2016-05-29T01:03:22.883Z,86.3
2016-05-29T01:03:32.837Z,86.1
2016-05-29T01:03:42.837Z,86.2
2016-05-29T01:03:52.823Z,86.3
2016-05-29T01:04:02.823Z,86.2
2016-05-29T01:04:12.823Z,86.1
2016-05-29T01:04:22.839Z,85.9
2016-05-29T01:04:32.823Z,86.2
2016-05-29T01:04:42.823Z,86.2
2016-05-29T01:04:52.904Z,86.3
2016-05-29T01:05:02.826Z,86.2
2016-05-29T01:05:12.826Z,86.3
2016-05-29T01:05:23.170Z,86.3
2016-05-29T01:05:33.451Z,86.2
2016-05-29T01:05:42.670Z,86.2
2016-05-29T01:05:53.048Z,86.2
2016-05-29T01:06:03.079Z,86.1
2016-05-29T01:06:12.829Z,86.2
2016-05-29T01:06:22.923Z,86.2
2016-05-29T01:06:32.845Z,86.2
2016-05-29T01:06:42.813Z,86.2
2016-05-29T01:06:52.879Z,86
2016-05-29T01:07:02.613Z,86
2016-05-29T01:07:12.785Z,85.9
2016-05-29T01:07:22.785Z,86.2
2016-05-29T01:07:32.879Z,86
2016-05-29T01:07:42.769Z,86.3
2016-05-29T01:07:52.787Z,86.4
2016-05-29T01:08:02.787Z,86.4
2016-05-29T01:08:12.646Z,86.4
2016-05-29T01:08:22.771Z,86.1
2016-05-29T01:08:32.631Z,86.3
2016-05-29T01:08:42.771Z,85.9
2016-05-29T01:08:52.774Z,86.4
2016-05-29T01:09:02.759Z,86.3
2016-05-29T01:09:12.774Z,86.2
2016-05-29T01:09:22.774Z,86.1
2016-05-29T01:09:32.587Z,86.1
2016-05-29T01:09:42.603Z,86.2
2016-05-29T01:09:52.636Z,86.6
2016-05-29T01:10:02.761Z,86.8
2016-05-29T01:10:12.776Z,86.8
2016-05-29T01:10:22.448Z,86.4
2016-05-29T01:10:32.636Z,87.1
2016-05-29T01:10:42.589Z,86.6
2016-05-29T01:10:52.811Z,87.4
2016-05-29T01:11:02.436Z,87.1
2016-05-29T01:11:12.748Z,88.2
2016-05-29T01:11:22.561Z,88.4
2016-05-29T01:11:32.764Z,87.9
2016-05-29T01:11:42.748Z,88.4
2016-05-29T01:11:52.626Z,88.3
2016-05-29T01:12:02.720Z,88.3
2016-05-29T01:12:12.767Z,88.3
2016-05-29T01:12:22.564Z,88.2
2016-05-29T01:12:32.704Z,88.4
2016-05-29T01:12:42.704Z,88.4
2016-05-29T01:12:52.784Z,88.3
2016-05-29T01:13:02.706Z,88.4
2016-05-29T01:13:12.706Z,89
2016-05-29T01:13:22.691Z,89
2016-05-29T01:13:32.706Z,88.7
2016-05-29T01:13:42.691Z,88.6
2016-05-29T01:13:52.694Z,88.9
2016-05-29T01:14:02.678Z,88.8
2016-05-29T01:14:12.741Z,89
2016-05-29T01:14:22.694Z,89.3
2016-05-29T01:14:32.678Z,89.3
2016-05-29T01:14:42.522Z,89.6
2016-05-29T01:14:52.681Z,90.1
2016-05-29T01:15:02.525Z,90
2016-05-29T01:15:12.681Z,90.2
2016-05-29T01:15:22.665Z,90.2
2016-05-29T01:15:32.681Z,90.3
2016-05-29T01:15:42.665Z,91.2
2016-05-29T01:15:52.668Z,91.4
2016-05-29T01:16:02.700Z,92.2
2016-05-29T01:16:12.653Z,92.6
2016-05-29T01:16:22.497Z,92.6
2016-05-29T01:16:32.637Z,92.6
2016-05-29T01:16:42.653Z,92.9
2016-05-29T01:16:52.639Z,93.1
2016-05-29T01:17:02.639Z,92.5
2016-05-29T01:17:12.530Z,92.5
2016-05-29T01:17:22.639Z,91.9
2016-05-29T01:17:32.639Z,92.4
2016-05-29T01:17:42.858Z,91.8
2016-05-29T01:17:52.627Z,92.2
2016-05-29T01:18:02.611Z,92.3
2016-05-29T01:18:12.627Z,92.5
2016-05-29T01:18:22.486Z,92.2
2016-05-29T01:18:32.502Z,92.5
2016-05-29T01:18:42.923Z,92.2
2016-05-29T01:18:52.505Z,92.5
2016-05-29T01:19:02.723Z,92.8
2016-05-29T01:19:12.505Z,92.5
2016-05-29T01:19:22.614Z,92.5
2016-05-29T01:19:32.458Z,92.8
2016-05-29T01:19:42.301Z,93.1
2016-05-29T01:19:52.600Z,93.4
2016-05-29T01:20:02.616Z,93.2
2016-05-29T01:20:14.022Z,93.3
2016-05-29T01:20:23.522Z,93.8
2016-05-29T01:20:33.475Z,93.9
2016-05-29T01:20:42.303Z,93.6
2016-05-29T01:20:52.494Z,94.1
2016-05-29T01:21:02.994Z,94.4
2016-05-29T01:21:12.494Z,94.4
2016-05-29T01:21:22.588Z,94.6
2016-05-29T01:21:32.322Z,95
2016-05-29T01:21:42.900Z,95.1
2016-05-29T01:21:52.575Z,95.3
2016-05-29T01:22:02.419Z,94.9
2016-05-29T01:22:12.450Z,95.5
2016-05-29T01:22:22.653Z,95.4
2016-05-29T01:22:32.434Z,95.1
2016-05-29T01:22:42.622Z,95.2
2016-05-29T01:22:52.561Z,95.5
2016-05-29T01:23:02.655Z,95.5
2016-05-29T01:23:12.546Z,95.1
2016-05-29T01:23:22.546Z,95.3
2016-05-29T01:23:32.561Z,95
2016-05-29T01:23:42.390Z,95.1
2016-05-29T01:23:52.580Z,95
2016-05-29T01:24:02.533Z,94.6
2016-05-29T01:24:12.533Z,94.4
2016-05-29T01:24:22.549Z,95.1
2016-05-29T01:24:32.533Z,95.3
2016-05-29T01:24:42.846Z,95.4
2016-05-29T01:24:52.552Z,95.9
2016-05-29T01:25:02.614Z,96.1
2016-05-29T01:25:12.536Z,96.3
2016-05-29T01:25:22.646Z,96.3
2016-05-29T01:25:32.521Z,96.4
2016-05-29T01:25:42.599Z,96.2
2016-05-29T01:25:52.524Z,96.1
2016-05-29T01:26:02.524Z,96.1
2016-05-29T01:26:12.524Z,96.4
2016-05-29T01:26:22.570Z,96.2
2016-05-29T01:26:32.524Z,96.3
2016-05-29T01:26:42.508Z,96
2016-05-29T01:26:52.541Z,95.9
2016-05-29T01:27:02.791Z,96
2016-05-29T01:27:12.510Z,95.8
2016-05-29T01:27:22.619Z,95.6
2016-05-29T01:27:32.510Z,95.9
2016-05-29T01:27:42.494Z,96
2016-05-29T01:27:52.513Z,96.1
2016-05-29T01:28:02.482Z,95.7
2016-05-29T01:28:12.482Z,95.7
2016-05-29T01:28:22.544Z,95.5
2016-05-29T01:28:32.482Z,95.6
2016-05-29T01:28:42.482Z,95.6
2016-05-29T01:28:52.485Z,95.5
2016-05-29T01:29:02.203Z,95.6
2016-05-29T01:29:12.485Z,95.4
2016-05-29T01:29:22.485Z,95.4
2016-05-29T01:29:32.328Z,95.1
2016-05-29T01:29:42.469Z,95.1
2016-05-29T01:29:52.488Z,94.7
2016-05-29T01:30:02.581Z,94.9
2016-05-29T01:30:12.472Z,95
2016-05-29T01:30:22.503Z,94.7
2016-05-29T01:30:32.488Z,94.9
2016-05-29T01:30:42.472Z,95
2016-05-29T01:30:52.333Z,95
2016-05-29T01:31:02.505Z,95.4
2016-05-29T01:31:12.490Z,95.3
2016-05-29T01:31:22.490Z,95.2
2016-05-29T01:31:32.349Z,94.9
2016-05-29T01:31:42.443Z,95.5
2016-05-29T01:31:52.461Z,95.8
2016-05-29T01:32:02.508Z,95.8
2016-05-29T01:32:12.274Z,95.4
2016-05-29T01:32:22.461Z,95.6
2016-05-29T01:32:32.461Z,95.4
2016-05-29T01:32:42.446Z,95.6
2016-05-29T01:32:52.433Z,95.6
2016-05-29T01:33:02.261Z,95.6
2016-05-29T01:33:12.449Z,95.7
2016-05-29T01:33:22.152Z,95.4
2016-05-29T01:33:32.433Z,96.1
2016-05-29T01:33:42.433Z,95.8
2016-05-29T01:33:52.404Z,96
2016-05-29T01:34:02.482Z,95.8
2016-05-29T01:34:12.404Z,95.8
2016-05-29T01:34:22.388Z,95.7
2016-05-29T01:34:32.404Z,95.8
2016-05-29T01:34:42.404Z,95.7
2016-05-29T01:34:52.391Z,96
2016-05-29T01:35:02.235Z,95.9
2016-05-29T01:35:12.563Z,95.6
2016-05-29T01:35:22.704Z,96.2
2016-05-29T01:35:32.829Z,95.5
2016-05-29T01:35:42.563Z,95.6
2016-05-29T01:35:53.347Z,95.6
2016-05-29T01:36:02.691Z,95.6
2016-05-29T01:36:12.222Z,95.7
2016-05-29T01:36:22.785Z,95.5
2016-05-29T01:36:32.222Z,95.6
2016-05-29T01:36:42.441Z,95.6
2016-05-29T01:36:52.381Z,95.5
2016-05-29T01:37:02.396Z,95.5
2016-05-29T01:37:12.349Z,95.4
2016-05-29T01:37:22.396Z,95.4
2016-05-29T01:37:32.209Z,95.4
2016-05-29T01:37:42.381Z,95.6
2016-05-29T01:37:52.212Z,95.8
2016-05-29T01:38:02.384Z,95.6
2016-05-29T01:38:12.337Z,95.2
2016-05-29T01:38:22.337Z,95.4
2016-05-29T01:38:32.352Z,95.4
2016-05-29T01:38:42.227Z,95.3
2016-05-29T01:38:52.355Z,95.9
2016-05-29T01:39:02.012Z,95.6
2016-05-29T01:39:12.340Z,95.9
2016-05-29T01:39:22.371Z,95.5
2016-05-29T01:39:32.027Z,95.5
2016-05-29T01:39:42.340Z,95.6
2016-05-29T01:39:52.311Z,95.8
2016-05-29T01:40:02.373Z,95.4
2016-05-29T01:40:12.311Z,95.4
2016-05-29T01:40:22.607Z,95.7
2016-05-29T01:40:32.201Z,95.7
2016-05-29T01:40:41.998Z,95.8
2016-05-29T01:40:52.329Z,95.7
2016-05-29T01:41:02.314Z,95.7
2016-05-29T01:41:12.298Z,95.5
2016-05-29T01:41:22.345Z,95.9
2016-05-29T01:41:32.298Z,96.2
2016-05-29T01:41:42.314Z,96.2
2016-05-29T01:41:52.285Z,96.2
2016-05-29T01:42:02.317Z,96.4
2016-05-29T01:42:12.285Z,96.4
2016-05-29T01:42:22.301Z,96.4
2016-05-29T01:42:32.301Z,96.3
2016-05-29T01:42:42.348Z,96.1
2016-05-29T01:42:52.194Z,96.3
2016-05-29T01:43:02.303Z,96.4
2016-05-29T01:43:12.287Z,95.6
2016-05-29T01:43:22.272Z,96.4
2016-05-29T01:43:32.256Z,96.5
2016-05-29T01:43:42.272Z,96.3
2016-05-29T01:43:52.290Z,96
2016-05-29T01:44:02.290Z,96
2016-05-29T01:44:12.103Z,96.2
2016-05-29T01:44:22.259Z,96.3
2016-05-29T01:44:32.243Z,96.3
2016-05-29T01:44:42.275Z,96.5
2016-05-29T01:44:52.231Z,96.6
2016-05-29T01:45:02.278Z,96.4
2016-05-29T01:45:12.090Z,96.6
2016-05-29T01:45:22.246Z,96.8
2016-05-29T01:45:32.246Z,96.6
2016-05-29T01:45:42.278Z,96.2
2016-05-29T01:45:52.249Z,96.4
2016-05-29T01:46:02.265Z,96.2
2016-05-29T01:46:12.078Z,96.2
2016-05-29T01:46:22.249Z,96.3
2016-05-29T01:46:32.234Z,96.6
2016-05-29T01:46:42.218Z,97.2
2016-05-29T01:46:52.220Z,96.7
2016-05-29T01:47:02.251Z,96.7
2016-05-29T01:47:12.064Z,96.5
2016-05-29T01:47:22.251Z,96.6
2016-05-29T01:47:31.845Z,96.7
2016-05-29T01:47:42.080Z,96.5
2016-05-29T01:47:52.208Z,96.3
2016-05-29T01:48:02.067Z,96.4
2016-05-29T01:48:12.192Z,96.6
2016-05-29T01:48:22.504Z,96.6
2016-05-29T01:48:32.208Z,96.5
2016-05-29T01:48:42.223Z,96.3
2016-05-29T01:48:52.194Z,96.2
2016-05-29T01:49:02.194Z,96.3
2016-05-29T01:49:12.038Z,96.7
2016-05-29T01:49:22.241Z,96.8
2016-05-29T01:49:32.163Z,96.6
2016-05-29T01:49:42.475Z,96.6
2016-05-29T01:49:52.181Z,96.5
2016-05-29T01:50:02.228Z,96.2
2016-05-29T01:50:12.588Z,96.1
2016-05-29T01:50:22.103Z,96.5
2016-05-29T01:50:32.025Z,96.3
2016-05-29T01:50:42.025Z,96.5
2016-05-29T01:50:52.794Z,96.5
2016-05-29T01:51:03.309Z,96.4
2016-05-29T01:51:12.184Z,96.4
2016-05-29T01:51:21.950Z,96.5
2016-05-29T01:51:32.012Z,96.5
2016-05-29T01:51:42.184Z,96.4
2016-05-29T01:51:52.139Z,96.6
2016-05-29T01:52:02.139Z,96.5
2016-05-29T01:52:12.139Z,96.8
2016-05-29T01:52:22.030Z,96.6
2016-05-29T01:52:32.124Z,96.4
2016-05-29T01:52:42.202Z,96.6
2016-05-29T01:52:51.971Z,96.6
2016-05-29T01:53:02.158Z,96.5
2016-05-29T01:53:11.908Z,96.8
2016-05-29T01:53:21.971Z,96.5
2016-05-29T01:53:32.158Z,96.7
2016-05-29T01:53:42.174Z,96.7
2016-05-29T01:53:52.130Z,96.8
2016-05-29T01:54:02.130Z,96.3
2016-05-29T01:54:11.958Z,96.4
2016-05-29T01:54:22.005Z,96.9
2016-05-29T01:54:32.114Z,96.7
2016-05-29T01:54:41.958Z,97
2016-05-29T01:54:52.101Z,97.2
2016-05-29T01:55:02.179Z,97.1
2016-05-29T01:55:12.116Z,97.6
2016-05-29T01:55:22.101Z,97.1
2016-05-29T01:55:31.944Z,97.5
2016-05-29T01:55:42.179Z,97.5
2016-05-29T01:55:51.932Z,97.5
2016-05-29T01:56:02.119Z,97.7
2016-05-29T01:56:11.932Z,98.1
2016-05-29T01:56:22.088Z,98.5
2016-05-29T01:56:31.932Z,98.9
2016-05-29T01:56:42.150Z,99.2
2016-05-29T01:56:52.075Z,99.2
2016-05-29T01:57:02.122Z,99.2
2016-05-29T01:57:12.060Z,99.7
2016-05-29T01:57:22.091Z,99.4
2016-05-29T01:57:31.935Z,99.3
2016-05-29T01:57:42.153Z,99.5
2016-05-29T01:57:51.921Z,99.4
2016-05-29T01:58:02.093Z,99.6
2016-05-29T01:58:12.062Z,99.7
2016-05-29T01:58:22.093Z,100
2016-05-29T01:58:32.062Z,100
2016-05-29T01:58:42.062Z,100
2016-05-29T01:58:52.066Z,100
2016-05-29T01:59:02.066Z,100
2016-05-29T01:59:11.909Z,100
2016-05-29T01:59:22.066Z,100
2016-05-29T01:59:32.066Z,99.3
2016-05-29T01:59:42.113Z,99.2
2016-05-29T01:59:52.036Z,99.3
2016-05-29T02:00:01.896Z,99.3
2016-05-29T02:00:12.021Z,99.2
2016-05-29T02:00:21.927Z,99.7
2016-05-29T02:00:31.927Z,99.3
2016-05-29T02:00:42.021Z,99.4
2016-05-29T02:00:52.008Z,99.4
2016-05-29T02:01:01.852Z,99.2
2016-05-29T02:01:12.024Z,98.9
2016-05-29T02:01:22.024Z,98.8
2016-05-29T02:01:32.024Z,99.2
2016-05-29T02:01:41.899Z,99.2
2016-05-29T02:01:52.010Z,99.2
2016-05-29T02:02:01.885Z,98.9
2016-05-29T02:02:11.854Z,99
2016-05-29T02:02:21.995Z,99.2
2016-05-29T02:02:31.729Z,99.2
2016-05-29T02:02:42.010Z,99.1
2016-05-29T02:02:51.982Z,99.2
2016-05-29T02:03:01.982Z,99.1
2016-05-29T02:03:11.982Z,99.1
2016-05-29T02:03:21.998Z,99.1
2016-05-29T02:03:31.810Z,99.1
2016-05-29T02:03:42.029Z,98.8
2016-05-29T02:03:51.876Z,99.3
2016-05-29T02:04:01.985Z,99
2016-05-29T02:04:11.985Z,99
2016-05-29T02:04:21.969Z,98.8
2016-05-29T02:04:31.985Z,98.6
2016-05-29T02:04:41.797Z,98.9
2016-05-29T02:04:51.972Z,98.8
2016-05-29T02:05:01.832Z,98.7
2016-05-29T02:05:11.957Z,99.1
2016-05-29T02:05:21.800Z,99.3
2016-05-29T02:05:32.066Z,99.6
2016-05-29T02:05:42.504Z,99.7
2016-05-29T02:05:52.382Z,100
2016-05-29T02:06:01.772Z,99.9
2016-05-29T02:06:11.819Z,100
2016-05-29T02:06:22.116Z,100
2016-05-29T02:06:31.944Z,100
2016-05-29T02:06:41.944Z,100
2016-05-29T02:06:51.664Z,100
2016-05-29T02:07:01.929Z,99.9
2016-05-29T02:07:11.820Z,100
2016-05-29T02:07:21.976Z,100
2016-05-29T02:07:31.914Z,100
2016-05-29T02:07:41.945Z,100
2016-05-29T02:07:51.933Z,99.9
2016-05-29T02:08:01.933Z,100
2016-05-29T02:08:11.933Z,100
2016-05-29T02:08:21.621Z,100
2016-05-29T02:08:31.918Z,99.8
2016-05-29T02:08:41.918Z,100
2016-05-29T02:08:51.905Z,100
2016-05-29T02:09:01.968Z,99.9
2016-05-29T02:09:11.890Z,100
2016-05-29T02:09:21.749Z,99.9
2016-05-29T02:09:31.890Z,100
2016-05-29T02:09:41.890Z,100
2016-05-29T02:09:51.907Z,100
2016-05-29T02:10:01.892Z,100
2016-05-29T02:10:11.907Z,100
2016-05-29T02:10:21.907Z,99.9
2016-05-29T02:10:31.892Z,100
2016-05-29T02:10:41.907Z,100
2016-05-29T02:10:51.722Z,100
2016-05-29T02:11:01.753Z,100
2016-05-29T02:11:11.706Z,99.9
2016-05-29T02:11:21.909Z,99.4
2016-05-29T02:11:31.722Z,99.3
2016-05-29T02:11:42.003Z,99.4
2016-05-29T02:11:52.023Z,99.5
2016-05-29T02:12:01.929Z,99.7
2016-05-29T02:12:11.694Z,99.4
2016-05-29T02:12:21.851Z,99.7
2016-05-29T02:12:31.538Z,99.5
2016-05-29T02:12:41.898Z,99.2
2016-05-29T02:12:51.837Z,99.5
2016-05-29T02:13:01.915Z,99.7
2016-05-29T02:13:11.837Z,99.6
2016-05-29T02:13:21.728Z,99.6
2016-05-29T02:13:31.853Z,99.4
2016-05-29T02:13:41.853Z,99.3
2016-05-29T02:13:51.856Z,99.4
2016-05-29T02:14:01.824Z,99.5
2016-05-29T02:14:11.668Z,99.4